createdAt,value
2018-01-17T00:00:10.167Z,98789.84
2018-01-17T00:02:37.896Z,98780.89
2018-01-17T00:05:05.639Z,98778.44
2018-01-17T00:07:33.377Z,98776.58
2018-01-17T00:10:01.113Z,98780.38
2018-01-17T00:12:28.880Z,98772.31
2018-01-17T00:14:56.504Z,98777.80
2018-01-17T00:17:24.230Z,98764.86
2018-01-17T00:19:51.919Z,98765.13
2018-01-17T00:22:19.640Z,98767.87
2018-01-17T00:24:47.287Z,98760.73
2018-01-17T00:27:14.969Z,98763.48
2018-01-17T00:29:42.648Z,98762.11
2018-01-17T00:32:10.378Z,98762.38
2018-01-17T00:34:38.064Z,98756.97
2018-01-17T00:37:05.763Z,98767.25
2018-01-17T00:39:33.505Z,98767.95
2018-01-17T00:42:01.180Z,98771.28
2018-01-17T00:44:28.915Z,98775.63
2018-01-17T00:46:56.645Z,98780.98
2018-01-17T00:49:24.364Z,98776.86
2018-01-17T00:51:52.038Z,98774.34
2018-01-17T00:54:19.772Z,98781.87
2018-01-17T00:56:47.450Z,98779.63
2018-01-17T00:59:15.211Z,98776.55
2018-01-17T01:01:42.900Z,98777.22
2018-01-17T01:04:10.620Z,98777.97
2018-01-17T01:06:38.353Z,98768.36
2018-01-17T01:09:06.101Z,98761.64
2018-01-17T01:11:33.733Z,98773.84
2018-01-17T01:14:01.420Z,98771.98
2018-01-17T01:16:29.048Z,98779.34
2018-01-17T01:18:56.674Z,98773.73
2018-01-17T01:21:24.407Z,98777.30
2018-01-17T01:23:52.085Z,98780.61
2018-01-17T01:26:19.812Z,98782.16
2018-01-17T01:28:47.470Z,98778.59
2018-01-17T01:31:15.266Z,98776.81
2018-01-17T01:33:43.007Z,98771.31
2018-01-17T01:36:10.780Z,98772.28
2018-01-17T01:38:38.507Z,98768.16
2018-01-17T01:41:06.168Z,98755.95
2018-01-17T01:43:33.951Z,98757.78
2018-01-17T01:46:01.720Z,98759.63
2018-01-17T01:48:29.435Z,98753.81
2018-01-17T01:50:57.196Z,98755.52
2018-01-17T01:53:24.857Z,98755.38
2018-01-17T01:55:52.553Z,98754.41
2018-01-17T01:58:20.210Z,98745.62
2018-01-17T02:00:47.923Z,98746.58
2018-01-17T02:03:15.646Z,98749.56
2018-01-17T02:05:43.427Z,98743.36
2018-01-17T02:08:11.209Z,98739.99
2018-01-17T02:10:38.936Z,98739.88
2018-01-17T02:13:06.706Z,98732.60
2018-01-17T02:15:34.434Z,98739.16
2018-01-17T02:18:02.215Z,98735.06
2018-01-17T02:20:29.846Z,98743.70
2018-01-17T02:22:57.573Z,98736.27
2018-01-17T02:25:25.195Z,98738.69
2018-01-17T02:27:52.923Z,98740.81
2018-01-17T02:30:20.629Z,98736.70
2018-01-17T02:32:48.298Z,98737.25
2018-01-17T02:35:15.976Z,98732.17
2018-01-17T02:37:43.711Z,98732.42
2018-01-17T02:43:14.440Z,98738.63
2018-01-17T02:45:42.127Z,98734.09
2018-01-17T02:48:09.847Z,98732.49
2018-01-17T02:50:37.515Z,98726.05
2018-01-17T02:53:05.248Z,98724.45
2018-01-17T02:55:32.863Z,98727.52
2018-01-17T02:58:00.513Z,98729.19
2018-01-17T03:00:28.140Z,98733.72
2018-01-17T03:02:55.824Z,98733.72
2018-01-17T03:05:23.560Z,98716.76
2018-01-17T03:07:51.193Z,98716.17
2018-01-17T03:10:18.863Z,98723.77
2018-01-17T03:12:46.532Z,98722.25
2018-01-17T03:15:14.223Z,98716.02
2018-01-17T03:17:41.856Z,98723.17
2018-01-17T03:20:09.526Z,98719.73
2018-01-17T03:22:37.213Z,98726.21
2018-01-17T03:25:04.973Z,98723.48
2018-01-17T03:27:32.667Z,98721.64
2018-01-17T03:30:00.380Z,98713.34
2018-01-17T03:32:27.994Z,98709.33
2018-01-17T03:34:55.727Z,98704.89
2018-01-17T03:37:23.351Z,98703.66
2018-01-17T03:39:51.074Z,98706.41
2018-01-17T03:42:18.692Z,98707.48
2018-01-17T03:44:46.368Z,98703.84
2018-01-17T03:47:14.053Z,98696.80
2018-01-17T03:49:41.780Z,98704.28
2018-01-17T03:52:09.451Z,98695.33
2018-01-17T03:54:37.207Z,98687.95
2018-01-17T03:57:04.912Z,98688.17
2018-01-17T03:59:32.597Z,98692.65
2018-01-17T04:02:00.270Z,98696.36
2018-01-17T04:04:27.952Z,98685.38
2018-01-17T04:06:55.715Z,98685.16
2018-01-17T04:09:23.384Z,98688.06
2018-01-17T04:11:51.116Z,98689.14
2018-01-17T04:14:18.789Z,98687.65
2018-01-17T04:16:46.451Z,98687.89
2018-01-17T04:19:14.207Z,98696.36
2018-01-17T04:21:41.934Z,98700.82
2018-01-17T04:24:09.555Z,98698.91
2018-01-17T04:26:37.288Z,98687.45
2018-01-17T04:29:04.963Z,98696.77
2018-01-17T04:31:32.699Z,98686.98
2018-01-17T04:34:00.380Z,98688.77
2018-01-17T04:36:28.096Z,98686.42
2018-01-17T04:38:55.776Z,98685.20
2018-01-17T04:41:23.494Z,98677.50
2018-01-17T04:43:51.166Z,98679.19
2018-01-17T04:46:18.903Z,98680.55
2018-01-17T04:48:46.566Z,98673.13
2018-01-17T04:51:14.258Z,98673.52
2018-01-17T04:53:41.984Z,98681.56
2018-01-17T04:56:09.599Z,98678.04
2018-01-17T04:58:37.371Z,98673.88
2018-01-17T05:01:05.154Z,98677.08
2018-01-17T05:03:33.017Z,98676.18
2018-01-17T05:06:00.743Z,98680.06
2018-01-17T05:08:28.510Z,98676.02
2018-01-17T05:10:56.186Z,98679.36
2018-01-17T05:13:23.906Z,98686.05
2018-01-17T05:15:51.592Z,98691.73
2018-01-17T05:18:19.324Z,98698.88
2018-01-17T05:20:46.994Z,98703.69
2018-01-17T05:23:14.725Z,98702.08
2018-01-17T05:25:42.429Z,98708.00
2018-01-17T05:28:10.154Z,98711.50
2018-01-17T05:30:37.834Z,98727.20
2018-01-17T05:33:05.589Z,98725.85
2018-01-17T05:35:33.274Z,98729.23
2018-01-17T05:38:00.901Z,98732.09
2018-01-17T05:40:28.639Z,98733.55
2018-01-17T05:42:56.244Z,98731.36
2018-01-17T05:45:23.981Z,98731.45
2018-01-17T05:47:51.672Z,98729.38
2018-01-17T05:50:19.412Z,98738.66
2018-01-17T05:52:47.555Z,98744.81
2018-01-17T05:55:15.313Z,98744.08
2018-01-17T05:57:43.012Z,98750.06
2018-01-17T06:00:10.780Z,98743.61
2018-01-17T06:02:38.409Z,98752.60
2018-01-17T06:05:06.079Z,98758.44
2018-01-17T06:07:33.695Z,98757.48
2018-01-17T06:10:01.371Z,98755.78
2018-01-17T06:12:29.024Z,98769.20
2018-01-17T06:14:56.688Z,98764.77
2018-01-17T06:17:24.366Z,98769.94
2018-01-17T06:19:52.043Z,98769.38
2018-01-17T06:22:19.718Z,98761.96
2018-01-17T06:24:47.356Z,98769.46
2018-01-17T06:27:15.042Z,98770.84
2018-01-17T06:29:42.661Z,98770.45
2018-01-17T06:32:10.332Z,98781.52
2018-01-17T06:34:37.966Z,98772.73
2018-01-17T06:37:05.712Z,98774.28
2018-01-17T06:39:33.345Z,98770.56
2018-01-17T06:42:01.071Z,98770.97
2018-01-17T06:44:28.686Z,98779.62
2018-01-17T06:46:56.428Z,98787.23
2018-01-17T06:49:24.134Z,98792.41
2018-01-17T06:51:51.878Z,98793.22
2018-01-17T06:54:19.556Z,98795.16
2018-01-17T06:56:47.309Z,98792.55
2018-01-17T06:59:15.004Z,98786.59
2018-01-17T07:01:42.690Z,98798.09
2018-01-17T07:04:10.432Z,98798.82
2018-01-17T07:06:38.183Z,98797.56
2018-01-17T07:09:05.959Z,98801.89
2018-01-17T07:11:33.674Z,98799.96
2018-01-17T07:14:01.428Z,98800.38
2018-01-17T07:16:29.051Z,98805.05
2018-01-17T07:18:56.789Z,98808.20
2018-01-17T07:21:24.425Z,98816.26
2018-01-17T07:23:52.112Z,98819.59
2018-01-17T07:26:19.830Z,98817.31
2018-01-17T07:28:47.621Z,98823.62
2018-01-17T07:31:15.322Z,98824.42
2018-01-17T07:33:43.073Z,98838.70
2018-01-17T07:36:10.800Z,98835.64
2018-01-17T07:38:38.466Z,98838.32
2018-01-17T07:41:06.094Z,98838.20
2018-01-17T07:43:33.773Z,98839.42
2018-01-17T07:46:01.407Z,98852.55
2018-01-17T07:48:29.071Z,98853.33
2018-01-17T07:50:56.695Z,98860.92
2018-01-17T07:53:24.384Z,98866.97
2018-01-17T07:55:51.997Z,98864.23
2018-01-17T07:58:19.616Z,98866.68
2018-01-17T08:00:47.364Z,98864.02
2018-01-17T08:03:14.983Z,98864.25
2018-01-17T08:05:42.665Z,98861.56
2018-01-17T08:08:10.380Z,98860.60
2018-01-17T08:10:38.079Z,98866.33
2018-01-17T08:13:05.732Z,98863.66
2018-01-17T08:15:33.624Z,98868.59
2018-01-17T08:18:01.245Z,98870.64
2018-01-17T08:20:28.982Z,98869.02
2018-01-17T08:22:56.596Z,98875.73
2018-01-17T08:25:24.267Z,98880.48
2018-01-17T08:27:51.890Z,98881.63
2018-01-17T08:30:19.569Z,98885.16
2018-01-17T08:32:47.175Z,98892.38
2018-01-17T08:35:14.845Z,98880.02
2018-01-17T08:37:42.484Z,98883.03
2018-01-17T08:40:10.141Z,98892.73
2018-01-17T08:42:37.780Z,98896.09
2018-01-17T08:45:05.470Z,98898.05
2018-01-17T08:47:33.088Z,98898.53
2018-01-17T08:50:00.804Z,98902.45
2018-01-17T08:52:28.478Z,98904.09
2018-01-17T08:54:56.191Z,98905.89
2018-01-17T08:57:24.355Z,98910.56
2018-01-17T08:59:52.044Z,98908.92
2018-01-17T09:02:19.692Z,98908.92
2018-01-17T09:04:47.428Z,98911.67
2018-01-17T09:07:15.164Z,98920.53
2018-01-17T09:09:42.914Z,98924.39
2018-01-17T09:12:10.528Z,98930.19
2018-01-17T09:14:38.204Z,98928.14
2018-01-17T09:17:05.875Z,98936.50
2018-01-17T09:19:33.600Z,98941.56
2018-01-17T09:22:01.295Z,98940.73
2018-01-17T09:24:29.040Z,98943.14
2018-01-17T09:26:56.716Z,98957.13
2018-01-17T09:29:24.528Z,98955.84
2018-01-17T09:31:52.146Z,98961.05
2018-01-17T09:34:19.890Z,98968.30
2018-01-17T09:36:48.204Z,98964.97
2018-01-17T09:39:15.896Z,98972.48
2018-01-17T09:41:43.560Z,98974.70
2018-01-17T09:44:11.234Z,98981.53
2018-01-17T09:46:38.985Z,98978.64
2018-01-17T09:49:06.683Z,98985.60
2018-01-17T09:51:34.427Z,98982.33
2018-01-17T09:54:02.047Z,98997.94
2018-01-17T09:56:29.796Z,98992.78
2018-01-17T09:58:57.424Z,98995.73
2018-01-17T10:01:25.154Z,99011.05
2018-01-17T10:03:52.825Z,99005.95
2018-01-17T10:06:20.483Z,99008.12
2018-01-17T10:08:48.204Z,99012.59
2018-01-17T10:11:15.945Z,99010.61
2018-01-17T10:13:43.564Z,99020.50
2018-01-17T10:16:11.231Z,99021.44
2018-01-17T10:18:38.851Z,99020.38
2018-01-17T10:21:06.508Z,99027.78
2018-01-17T10:23:34.108Z,99032.41
2018-01-17T10:26:01.822Z,99038.01
2018-01-17T10:28:29.438Z,99044.93
2018-01-17T10:30:57.202Z,99043.73
2018-01-17T10:33:24.870Z,99053.86
2018-01-17T10:35:52.541Z,99057.48
2018-01-17T10:38:20.172Z,99062.86
2018-01-17T10:40:47.831Z,99061.28
2018-01-17T10:43:15.460Z,99074.50
2018-01-17T10:45:43.153Z,99077.46
2018-01-17T10:48:10.773Z,99077.28
2018-01-17T10:50:38.473Z,99083.51
2018-01-17T10:53:06.096Z,99079.98
2018-01-17T10:55:33.752Z,99086.25
2018-01-17T10:58:01.371Z,99087.02
2018-01-17T11:00:34.508Z,99087.30
2018-01-17T11:03:02.132Z,99092.74
2018-01-17T11:05:29.830Z,99104.36
2018-01-17T11:07:57.456Z,99111.81
2018-01-17T11:10:25.189Z,99109.57
2018-01-17T11:12:52.814Z,99111.21
2018-01-17T11:15:20.569Z,99120.56
2018-01-17T11:17:51.820Z,99120.77
2018-01-17T11:20:19.587Z,99119.31
2018-01-17T11:22:47.213Z,99126.13
2018-01-17T11:25:14.833Z,99123.93
2018-01-17T11:27:42.504Z,99128.41
2018-01-17T11:30:10.207Z,99124.74
2018-01-17T11:32:37.939Z,99123.66
2018-01-17T11:35:05.592Z,99129.97
2018-01-17T11:37:33.252Z,99127.92
2018-01-17T11:40:01.124Z,99132.76
2018-01-17T11:42:28.799Z,99134.93
2018-01-17T11:44:56.422Z,99136.08
2018-01-17T11:47:24.155Z,99146.23
2018-01-17T11:49:51.779Z,99149.95
2018-01-17T11:52:19.509Z,99148.90
2018-01-17T11:54:47.127Z,99161.38
2018-01-17T11:57:14.799Z,99167.70
2018-01-17T11:59:42.418Z,99161.12
2018-01-17T12:02:10.080Z,99164.42
2018-01-17T12:04:37.742Z,99170.19
2018-01-17T12:07:05.433Z,99172.84
2018-01-17T12:09:33.064Z,99179.22
2018-01-17T12:12:00.735Z,99176.58
2018-01-17T12:14:28.344Z,99179.59
2018-01-17T12:16:56.012Z,99186.43
2018-01-17T12:19:23.632Z,99190.09
2018-01-17T12:21:51.290Z,99192.91
2018-01-17T12:24:18.924Z,99194.56
2018-01-17T12:26:46.659Z,99189.02
2018-01-17T12:29:14.351Z,99178.92
2018-01-17T12:31:42.211Z,99179.05
2018-01-17T12:34:09.908Z,99185.79
2018-01-17T12:36:37.646Z,99182.66
2018-01-17T12:39:05.289Z,99176.31
2018-01-17T12:41:33.039Z,99178.65
2018-01-17T12:44:00.724Z,99174.16
2018-01-17T12:46:28.472Z,99174.42
2018-01-17T12:48:56.169Z,99176.34
2018-01-17T12:51:23.838Z,99188.17
2018-01-17T12:53:51.523Z,99198.28
2018-01-17T12:56:19.263Z,99186.20
2018-01-17T12:58:46.959Z,99189.76
2018-01-17T13:01:14.644Z,99196.88
2018-01-17T13:03:42.380Z,99205.73
2018-01-17T13:06:10.048Z,99207.72
2018-01-17T13:08:37.857Z,99221.04
2018-01-17T13:11:05.582Z,99224.05
2018-01-17T13:13:33.300Z,99227.98
2018-01-17T13:16:00.992Z,99226.75
2018-01-17T13:18:28.722Z,99221.36
2018-01-17T13:20:56.416Z,99247.70
2018-01-17T13:23:24.147Z,99245.28
2018-01-17T13:25:51.850Z,99241.53
2018-01-17T13:28:19.588Z,99246.48
2018-01-17T13:30:47.275Z,99251.57
2018-01-17T13:33:15.020Z,99255.94
2018-01-17T13:35:42.708Z,99255.95
2018-01-17T13:38:10.437Z,99266.55
2018-01-17T13:40:38.118Z,99271.22
2018-01-17T13:43:05.838Z,99270.06
2018-01-17T13:45:33.533Z,99266.53
2018-01-17T13:48:01.325Z,99271.63
2018-01-17T13:50:29.023Z,99271.41
2018-01-17T13:52:56.775Z,99273.26
2018-01-17T13:55:24.460Z,99272.73
2018-01-17T13:57:52.189Z,99269.52
2018-01-17T14:00:19.867Z,99261.91
2018-01-17T14:02:47.595Z,99274.73
2018-01-17T14:05:15.289Z,99277.43
2018-01-17T14:07:43.080Z,99285.22
2018-01-17T14:10:10.700Z,99289.03
2018-01-17T14:12:38.415Z,99292.70
2018-01-17T14:15:06.118Z,99290.64
2018-01-17T14:17:33.850Z,99303.58
2018-01-17T14:20:01.542Z,99300.58
2018-01-17T14:22:29.273Z,99307.23
2018-01-17T14:24:57.086Z,99308.15
2018-01-17T14:27:24.849Z,99316.28
2018-01-17T14:29:52.526Z,99323.55
2018-01-17T14:32:20.255Z,99325.65
2018-01-17T14:34:48.003Z,99331.02
2018-01-17T14:37:15.754Z,99324.75
2018-01-17T14:39:43.640Z,99326.44
2018-01-17T14:42:11.303Z,99306.61
2018-01-17T14:44:39.055Z,99322.50
2018-01-17T14:47:06.677Z,99329.38
2018-01-17T14:49:34.409Z,99334.83
2018-01-17T14:52:02.096Z,99343.22
2018-01-17T14:54:29.814Z,99344.22
2018-01-17T14:56:57.509Z,99346.60
2018-01-17T14:59:25.229Z,99352.09
2018-01-17T15:01:52.905Z,99359.02
2018-01-17T15:04:20.650Z,99360.02
2018-01-17T15:06:48.380Z,99364.96
2018-01-17T15:09:16.100Z,99373.42
2018-01-17T15:11:43.797Z,99378.15
2018-01-17T15:14:11.531Z,99386.03
2018-01-17T15:16:39.183Z,99377.92
2018-01-17T15:19:06.997Z,99384.28
2018-01-17T15:21:34.720Z,99389.66
2018-01-17T15:24:02.414Z,99390.55
2018-01-17T15:26:30.084Z,99391.03
2018-01-17T15:28:57.844Z,99395.84
2018-01-17T15:31:25.549Z,99400.69
2018-01-17T15:33:53.279Z,99401.80
2018-01-17T15:36:20.988Z,99404.99
2018-01-17T15:38:48.726Z,99405.34
2018-01-17T15:41:16.400Z,99419.19
2018-01-17T15:43:44.086Z,99413.63
2018-01-17T15:46:11.709Z,99419.65
2018-01-17T15:48:39.471Z,99418.04
2018-01-17T15:51:07.147Z,99427.62
2018-01-17T15:53:34.842Z,99430.50
2018-01-17T15:56:02.471Z,99426.76
2018-01-17T15:58:30.137Z,99430.61
2018-01-17T16:00:57.777Z,99424.63
2018-01-17T16:03:25.449Z,99428.58
2018-01-17T16:05:53.150Z,99427.86
2018-01-17T16:08:20.829Z,99432.25
2018-01-17T16:10:48.487Z,99430.16
2018-01-17T16:13:16.160Z,99432.59
2018-01-17T16:15:43.808Z,99434.03
2018-01-17T16:18:11.485Z,99444.36
2018-01-17T16:20:39.108Z,99442.02
2018-01-17T16:23:06.735Z,99450.98
2018-01-17T16:25:34.401Z,99458.19
2018-01-17T16:28:02.019Z,99449.25
2018-01-17T16:30:29.697Z,99449.63
2018-01-17T16:32:57.399Z,99448.40
2018-01-17T16:35:25.122Z,99454.34
2018-01-17T16:37:52.735Z,99463.09
2018-01-17T16:40:20.431Z,99471.20
2018-01-17T16:42:48.112Z,99469.10
2018-01-17T16:45:15.791Z,99482.66
2018-01-17T16:47:43.466Z,99480.19
2018-01-17T16:50:11.189Z,99486.89
2018-01-17T16:52:38.801Z,99496.23
2018-01-17T16:55:06.491Z,99496.98
2018-01-17T16:57:34.125Z,99495.33
2018-01-17T17:00:01.798Z,99490.17
2018-01-17T17:02:29.414Z,99501.12
2018-01-17T17:04:57.076Z,99504.84
2018-01-17T17:07:24.810Z,99503.98
2018-01-17T17:09:52.541Z,99501.33
2018-01-17T17:12:20.257Z,99506.92
2018-01-17T17:14:47.997Z,99500.64
2018-01-17T17:17:15.685Z,99507.09
2018-01-17T17:19:43.368Z,99505.14
2018-01-17T17:22:11.008Z,99515.45
2018-01-17T17:24:38.666Z,99515.14
2018-01-17T17:27:06.390Z,99516.95
2018-01-17T17:29:34.193Z,99508.27
2018-01-17T17:32:01.822Z,99514.80
2018-01-17T17:34:29.500Z,99521.88
2018-01-17T17:36:57.145Z,99531.88
2018-01-17T17:39:24.810Z,99531.78
2018-01-17T17:41:52.468Z,99542.73
2018-01-17T17:44:20.136Z,99550.42
2018-01-17T17:46:47.781Z,99551.77
2018-01-17T17:49:15.443Z,99552.48
2018-01-17T17:51:43.060Z,99553.11
2018-01-17T17:54:10.733Z,99556.67
2018-01-17T17:56:38.373Z,99568.49
2018-01-17T17:59:06.010Z,99569.59
2018-01-17T18:01:33.688Z,99574.53
2018-01-17T18:04:01.308Z,99585.25
2018-01-17T18:06:28.981Z,99583.44
2018-01-17T18:08:56.599Z,99588.66
2018-01-17T18:11:24.263Z,99593.57
2018-01-17T18:13:51.871Z,99591.20
2018-01-17T18:16:19.547Z,99604.29
2018-01-17T18:18:47.171Z,99594.81
2018-01-17T18:21:14.852Z,99598.69
2018-01-17T18:23:42.490Z,99599.34
2018-01-17T18:26:10.181Z,99608.06
2018-01-17T18:28:37.806Z,99611.55
2018-01-17T18:31:05.525Z,99605.00
2018-01-17T18:33:33.201Z,99614.13
2018-01-17T18:36:00.890Z,99611.87
2018-01-17T18:38:28.548Z,99624.28
2018-01-17T18:40:56.212Z,99621.88
2018-01-17T18:43:23.844Z,99632.70
2018-01-17T18:45:51.515Z,99619.40
2018-01-17T18:48:19.157Z,99624.34
2018-01-17T18:50:46.851Z,99640.73
2018-01-17T18:53:14.531Z,99642.41
2018-01-17T18:55:42.190Z,99649.44
2018-01-17T18:58:09.837Z,99644.88
2018-01-17T19:00:37.512Z,99642.54
2018-01-17T19:03:05.132Z,99650.62
2018-01-17T19:05:32.802Z,99646.98
2018-01-17T19:08:00.479Z,99652.23
2018-01-17T19:10:28.151Z,99651.55
2018-01-17T19:12:55.778Z,99658.08
2018-01-17T19:15:23.455Z,99662.59
2018-01-17T19:17:51.171Z,99667.99
2018-01-17T19:20:18.849Z,99672.97
2018-01-17T19:22:46.507Z,99672.77
2018-01-17T19:25:14.176Z,99674.17
2018-01-17T19:27:41.864Z,99679.73
2018-01-17T19:30:09.543Z,99680.39
2018-01-17T19:32:37.194Z,99684.82
2018-01-17T19:35:04.941Z,99675.20
2018-01-17T19:37:32.564Z,99689.70
2018-01-17T19:40:00.258Z,99686.98
2018-01-17T19:42:27.996Z,99702.30
2018-01-17T19:44:55.673Z,99697.70
2018-01-17T19:47:23.402Z,99703.34
2018-01-17T19:49:51.125Z,99708.16
2018-01-17T19:52:19.034Z,99702.80
2018-01-17T19:54:46.656Z,99707.49
2018-01-17T19:57:14.378Z,99701.58
2018-01-17T19:59:42.018Z,99704.00
2018-01-17T20:02:09.742Z,99705.89
2018-01-17T20:04:37.421Z,99716.55
2018-01-17T20:07:05.118Z,99705.49
2018-01-17T20:09:32.838Z,99714.05
2018-01-17T20:12:00.507Z,99715.02
2018-01-17T20:14:28.116Z,99725.32
2018-01-17T20:16:55.854Z,99730.41
2018-01-17T20:19:24.564Z,99728.20
2018-01-17T20:21:52.234Z,99734.94
2018-01-17T20:24:19.925Z,99737.53
2018-01-17T20:26:47.702Z,99740.39
2018-01-17T20:29:15.321Z,99752.23
2018-01-17T20:31:43.055Z,99757.70
2018-01-17T20:34:10.796Z,99755.62
2018-01-17T20:36:38.563Z,99758.42
2018-01-17T20:39:06.285Z,99759.16
2018-01-17T20:41:34.058Z,99754.52
2018-01-17T20:44:01.669Z,99760.70
2018-01-17T20:46:29.402Z,99758.83
2018-01-17T20:48:57.131Z,99763.31
2018-01-17T20:51:24.796Z,99764.30
2018-01-17T20:53:52.487Z,99762.40
2018-01-17T20:56:20.247Z,99766.77
2018-01-17T20:58:47.933Z,99774.57
2018-01-17T21:01:15.713Z,99771.03
2018-01-17T21:03:43.409Z,99781.06
2018-01-17T21:06:11.139Z,99783.66
2018-01-17T21:08:38.898Z,99782.68
2018-01-17T21:11:06.561Z,99784.97
2018-01-17T21:13:34.250Z,99778.87
2018-01-17T21:16:02.021Z,99782.94
2018-01-17T21:18:29.693Z,99789.78
2018-01-17T21:20:57.396Z,99786.19
2018-01-17T21:23:25.129Z,99783.95
2018-01-17T21:25:52.864Z,99786.38
2018-01-17T21:28:20.579Z,99787.48
2018-01-17T21:30:48.389Z,99793.94
2018-01-17T21:33:16.160Z,99794.87
2018-01-17T21:35:43.901Z,99792.38
2018-01-17T21:38:11.618Z,99789.23
2018-01-17T21:40:39.249Z,99797.43
2018-01-17T21:46:08.253Z,99805.09
2018-01-17T21:48:35.922Z,99804.66
2018-01-17T21:51:03.600Z,99805.70
2018-01-17T21:53:31.367Z,99814.12
2018-01-17T21:55:59.026Z,99820.85
2018-01-17T21:58:26.773Z,99833.03
2018-01-17T22:00:54.501Z,99840.27
2018-01-17T22:03:22.217Z,99841.72
2018-01-17T22:05:49.832Z,99833.37
2018-01-17T22:08:17.649Z,99850.85
2018-01-17T22:10:45.401Z,99852.25
2018-01-17T22:13:13.101Z,99851.75
2018-01-17T22:15:40.819Z,99857.53
2018-01-17T22:18:08.532Z,99860.06
2018-01-17T22:20:36.188Z,99858.86
2018-01-17T22:23:03.852Z,99841.69
2018-01-17T22:25:31.471Z,99858.58
2018-01-17T22:27:59.140Z,99854.59
2018-01-17T22:30:26.756Z,99874.69
2018-01-17T22:32:54.495Z,99862.89
2018-01-17T22:35:22.176Z,99860.34
2018-01-17T22:37:49.972Z,99868.56
2018-01-17T22:40:17.596Z,99864.47
2018-01-17T22:42:45.330Z,99860.67
2018-01-17T22:45:13.071Z,99863.42
2018-01-17T22:47:40.808Z,99860.83
2018-01-17T22:50:08.435Z,99857.35
2018-01-17T22:52:36.227Z,99858.41
2018-01-17T22:55:03.843Z,99858.44
2018-01-17T22:57:31.508Z,99857.28
2018-01-17T22:59:59.129Z,99865.14
2018-01-17T23:02:26.862Z,99850.00
2018-01-17T23:04:54.540Z,99864.50
2018-01-17T23:07:22.327Z,99860.61
2018-01-17T23:09:49.930Z,99864.13
2018-01-17T23:12:17.654Z,99865.92
2018-01-17T23:14:45.355Z,99870.32
2018-01-17T23:17:13.114Z,99876.88
2018-01-17T23:19:40.721Z,99874.21
2018-01-17T23:22:08.413Z,99880.25
2018-01-17T23:24:36.148Z,99881.91
2018-01-17T23:27:03.836Z,99869.21
2018-01-17T23:29:31.588Z,99869.30
2018-01-17T23:31:59.279Z,99889.19
2018-01-17T23:34:27.004Z,99869.69
2018-01-17T23:36:54.631Z,99887.53
2018-01-17T23:39:22.306Z,99887.40
2018-01-17T23:41:49.983Z,99890.97
2018-01-17T23:44:17.708Z,99888.89
2018-01-17T23:46:45.383Z,99886.41
2018-01-17T23:49:13.105Z,99892.46
2018-01-17T23:51:40.793Z,99895.90
2018-01-17T23:54:08.508Z,99900.60
2018-01-17T23:56:36.176Z,99892.09
2018-01-17T23:59:03.886Z,99886.48
